Terminal Aerodrome Forecast
Issued by NWS Wichita, KS

Home | Current Version | Previous Version | Graphics & Text | Print | Product List | Glossary On
Versions: 1 2 3 4 5 6 7 8 9 10 11 12 13 14 15 16 17 18
000
FTUS43 KICT 201100
TAFICT
TAF
KICT 201122Z 2012/2112 19008KT 5SM BR FEW010
     FM201400 21013KT P6SM SCT040
     FM210000 21007KT P6SM VCTS SCT050CB BKN100
     FM210500 33008KT P6SM VCTS BKN070CB=

USA.gov is the U.S. government's official web portal to all federal, state and local government web resources and services.